sensor_id;sensor_type;location;lat;lon;timestamp;temperature;humidity
43995;DHT22;51687;52.160;5.298;2022-07-29T00:02:25;23.30;46.50
43995;DHT22;51687;52.160;5.298;2022-07-29T00:04:52;23.30;46.50
43995;DHT22;51687;52.160;5.298;2022-07-29T00:07:19;23.30;46.70
43995;DHT22;51687;52.160;5.298;2022-07-29T00:09:46;23.30;46.40
43995;DHT22;51687;52.160;5.298;2022-07-29T00:12:19;23.30;46.70
43995;DHT22;51687;52.160;5.298;2022-07-29T00:14:55;23.30;46.40
43995;DHT22;51687;52.160;5.298;2022-07-29T00:17:25;23.30;46.30
43995;DHT22;51687;52.160;5.298;2022-07-29T00:19:52;23.30;47.10
43995;DHT22;51687;52.160;5.298;2022-07-29T00:22:20;23.30;46.40
43995;DHT22;51687;52.160;5.298;2022-07-29T00:24:48;23.30;46.40
43995;DHT22;51687;52.160;5.298;2022-07-29T00:27:15;23.30;46.50
43995;DHT22;51687;52.160;5.298;2022-07-29T00:29:42;23.30;50.60
43995;DHT22;51687;52.160;5.298;2022-07-29T00:32:09;23.30;46.80
43995;DHT22;51687;52.160;5.298;2022-07-29T00:34:35;23.30;46.50
43995;DHT22;51687;52.160;5.298;2022-07-29T00:37:21;23.30;46.50
43995;DHT22;51687;52.160;5.298;2022-07-29T00:39:48;23.30;46.50
43995;DHT22;51687;52.160;5.298;2022-07-29T00:42:14;23.30;46.40
43995;DHT22;51687;52.160;5.298;2022-07-29T00:44:43;23.30;46.40
43995;DHT22;51687;52.160;5.298;2022-07-29T00:47:11;23.30;46.90
43995;DHT22;51687;52.160;5.298;2022-07-29T00:49:39;23.30;46.60
43995;DHT22;51687;52.160;5.298;2022-07-29T00:52:06;23.20;46.60
43995;DHT22;51687;52.160;5.298;2022-07-29T00:54:34;23.30;50.30
43995;DHT22;51687;52.160;5.298;2022-07-29T00:57:06;23.30;46.90
43995;DHT22;51687;52.160;5.298;2022-07-29T00:59:33;23.20;46.60
43995;DHT22;51687;52.160;5.298;2022-07-29T01:02:02;23.20;46.70
43995;DHT22;51687;52.160;5.298;2022-07-29T01:04:30;23.20;46.60
43995;DHT22;51687;52.160;5.298;2022-07-29T01:06:58;23.20;46.40
43995;DHT22;51687;52.160;5.298;2022-07-29T01:09:26;23.20;46.50
43995;DHT22;51687;52.160;5.298;2022-07-29T01:12:15;23.20;46.60
43995;DHT22;51687;52.160;5.298;2022-07-29T01:14:43;23.20;46.50
43995;DHT22;51687;52.160;5.298;2022-07-29T01:22:52;23.20;46.40
43995;DHT22;51687;52.160;5.298;2022-07-29T01:30:44;23.20;48.30
43995;DHT22;51687;52.160;5.298;2022-07-29T01:33:15;23.20;46.50
43995;DHT22;51687;52.160;5.298;2022-07-29T01:36:08;23.20;46.80
43995;DHT22;51687;52.160;5.298;2022-07-29T01:38:39;23.20;46.40
43995;DHT22;51687;52.160;5.298;2022-07-29T01:41:15;23.20;46.60
43995;DHT22;51687;52.160;5.298;2022-07-29T01:43:56;23.20;46.50
43995;DHT22;51687;52.160;5.298;2022-07-29T01:46:39;23.20;47.20
43995;DHT22;51687;52.160;5.298;2022-07-29T01:49:13;23.20;47.20
43995;DHT22;51687;52.160;5.298;2022-07-29T01:51:56;23.20;46.30
43995;DHT22;51687;52.160;5.298;2022-07-29T01:54:35;23.20;46.50
43995;DHT22;51687;52.160;5.298;2022-07-29T01:57:05;23.20;46.60
43995;DHT22;51687;52.160;5.298;2022-07-29T01:59:34;23.20;46.60
43995;DHT22;51687;52.160;5.298;2022-07-29T02:02:02;23.20;46.60
43995;DHT22;51687;52.160;5.298;2022-07-29T02:04:32;23.20;46.50
43995;DHT22;51687;52.160;5.298;2022-07-29T02:07:05;23.20;46.70
43995;DHT22;51687;52.160;5.298;2022-07-29T02:09:35;23.20;46.50
43995;DHT22;51687;52.160;5.298;2022-07-29T02:12:03;23.20;46.40
43995;DHT22;51687;52.160;5.298;2022-07-29T02:14:41;23.20;46.50
43995;DHT22;51687;52.160;5.298;2022-07-29T02:17:10;23.20;46.20
43995;DHT22;51687;52.160;5.298;2022-07-29T02:19:39;23.10;46.20
43995;DHT22;51687;52.160;5.298;2022-07-29T02:22:09;23.10;46.20
43995;DHT22;51687;52.160;5.298;2022-07-29T02:24:38;23.20;46.20
43995;DHT22;51687;52.160;5.298;2022-07-29T02:27:07;23.10;46.20
43995;DHT22;51687;52.160;5.298;2022-07-29T02:29:35;23.10;46.30
43995;DHT22;51687;52.160;5.298;2022-07-29T02:32:03;23.10;46.40
43995;DHT22;51687;52.160;5.298;2022-07-29T02:34:31;23.10;46.40
43995;DHT22;51687;52.160;5.298;2022-07-29T02:36:59;23.10;46.30
43995;DHT22;51687;52.160;5.298;2022-07-29T02:39:27;23.10;46.50
43995;DHT22;51687;52.160;5.298;2022-07-29T02:41:59;23.10;46.40
43995;DHT22;51687;52.160;5.298;2022-07-29T02:44:28;23.10;46.20
43995;DHT22;51687;52.160;5.298;2022-07-29T02:47:19;23.10;46.50
43995;DHT22;51687;52.160;5.298;2022-07-29T02:50:09;23.10;46.30
43995;DHT22;51687;52.160;5.298;2022-07-29T02:55:30;23.10;46.30
43995;DHT22;51687;52.160;5.298;2022-07-29T02:58:12;23.10;46.50
43995;DHT22;51687;52.160;5.298;2022-07-29T03:00:40;23.10;46.30
43995;DHT22;51687;52.160;5.298;2022-07-29T03:03:10;23.10;46.60
43995;DHT22;51687;52.160;5.298;2022-07-29T03:05:39;23.10;46.70
43995;DHT22;51687;52.160;5.298;2022-07-29T03:08:08;23.10;46.50
43995;DHT22;51687;52.160;5.298;2022-07-29T03:10:39;23.10;46.60
43995;DHT22;51687;52.160;5.298;2022-07-29T03:13:07;23.10;46.40
43995;DHT22;51687;52.160;5.298;2022-07-29T03:15:34;23.10;47.00
43995;DHT22;51687;52.160;5.298;2022-07-29T03:18:02;23.10;46.60
43995;DHT22;51687;52.160;5.298;2022-07-29T03:20:29;23.10;46.90
43995;DHT22;51687;52.160;5.298;2022-07-29T03:22:56;23.10;46.50
43995;DHT22;51687;52.160;5.298;2022-07-29T03:25:22;23.10;46.40
43995;DHT22;51687;52.160;5.298;2022-07-29T03:27:49;23.10;46.50
43995;DHT22;51687;52.160;5.298;2022-07-29T03:30:16;23.10;46.50
43995;DHT22;51687;52.160;5.298;2022-07-29T03:32:47;23.10;46.90
43995;DHT22;51687;52.160;5.298;2022-07-29T03:35:14;23.10;46.50
43995;DHT22;51687;52.160;5.298;2022-07-29T03:37:44;23.10;47.00
43995;DHT22;51687;52.160;5.298;2022-07-29T03:40:16;23.10;46.60
43995;DHT22;51687;52.160;5.298;2022-07-29T03:42:45;23.10;46.70
43995;DHT22;51687;52.160;5.298;2022-07-29T03:45:17;23.10;46.60
43995;DHT22;51687;52.160;5.298;2022-07-29T03:47:51;23.10;46.60
43995;DHT22;51687;52.160;5.298;2022-07-29T03:50:26;23.10;46.40
43995;DHT22;51687;52.160;5.298;2022-07-29T03:52:53;23.10;46.70
43995;DHT22;51687;52.160;5.298;2022-07-29T03:55:20;23.10;46.80
43995;DHT22;51687;52.160;5.298;2022-07-29T03:57:48;23.00;46.60
43995;DHT22;51687;52.160;5.298;2022-07-29T04:00:16;23.00;46.60
43995;DHT22;51687;52.160;5.298;2022-07-29T04:02:43;23.10;46.70
43995;DHT22;51687;52.160;5.298;2022-07-29T04:05:16;23.10;47.40
43995;DHT22;51687;52.160;5.298;2022-07-29T04:07:44;23.00;46.60
43995;DHT22;51687;52.160;5.298;2022-07-29T04:10:11;23.00;46.70
43995;DHT22;51687;52.160;5.298;2022-07-29T04:12:38;23.00;46.70
43995;DHT22;51687;52.160;5.298;2022-07-29T04:15:06;23.00;47.20
43995;DHT22;51687;52.160;5.298;2022-07-29T04:17:32;23.00;46.60
43995;DHT22;51687;52.160;5.298;2022-07-29T04:19:59;23.00;46.70
43995;DHT22;51687;52.160;5.298;2022-07-29T04:22:26;23.00;46.70
43995;DHT22;51687;52.160;5.298;2022-07-29T04:24:53;23.00;46.70
43995;DHT22;51687;52.160;5.298;2022-07-29T04:27:19;23.00;47.00
43995;DHT22;51687;52.160;5.298;2022-07-29T04:29:46;23.00;47.00
43995;DHT22;51687;52.160;5.298;2022-07-29T04:32:26;23.00;46.80
43995;DHT22;51687;52.160;5.298;2022-07-29T04:34:53;23.00;46.70
43995;DHT22;51687;52.160;5.298;2022-07-29T04:37:20;23.00;46.80
43995;DHT22;51687;52.160;5.298;2022-07-29T04:39:46;23.00;46.80
43995;DHT22;51687;52.160;5.298;2022-07-29T04:42:13;23.00;46.70
43995;DHT22;51687;52.160;5.298;2022-07-29T04:44:42;23.00;47.00
43995;DHT22;51687;52.160;5.298;2022-07-29T04:47:09;23.00;46.90
43995;DHT22;51687;52.160;5.298;2022-07-29T04:49:39;23.00;47.20
43995;DHT22;51687;52.160;5.298;2022-07-29T04:52:06;23.00;46.60
43995;DHT22;51687;52.160;5.298;2022-07-29T04:54:33;23.00;46.70
43995;DHT22;51687;52.160;5.298;2022-07-29T04:57:00;23.00;46.80
43995;DHT22;51687;52.160;5.298;2022-07-29T04:59:27;23.00;46.80
43995;DHT22;51687;52.160;5.298;2022-07-29T05:01:54;23.00;46.90
43995;DHT22;51687;52.160;5.298;2022-07-29T05:04:20;23.00;47.00
43995;DHT22;51687;52.160;5.298;2022-07-29T05:06:47;23.00;47.00
43995;DHT22;51687;52.160;5.298;2022-07-29T05:09:14;22.90;47.00
43995;DHT22;51687;52.160;5.298;2022-07-29T05:11:41;22.90;47.00
43995;DHT22;51687;52.160;5.298;2022-07-29T05:14:08;23.00;47.10
43995;DHT22;51687;52.160;5.298;2022-07-29T05:16:35;22.90;47.30
43995;DHT22;51687;52.160;5.298;2022-07-29T05:19:02;22.90;47.10
43995;DHT22;51687;52.160;5.298;2022-07-29T05:21:28;22.90;47.40
43995;DHT22;51687;52.160;5.298;2022-07-29T05:23:55;22.90;47.30
43995;DHT22;51687;52.160;5.298;2022-07-29T05:26:22;23.00;47.40
43995;DHT22;51687;52.160;5.298;2022-07-29T05:28:49;22.90;47.40
43995;DHT22;51687;52.160;5.298;2022-07-29T05:31:15;22.90;47.40
43995;DHT22;51687;52.160;5.298;2022-07-29T05:33:42;22.90;47.40
43995;DHT22;51687;52.160;5.298;2022-07-29T05:36:09;22.90;47.50
43995;DHT22;51687;52.160;5.298;2022-07-29T05:38:36;22.90;47.50
43995;DHT22;51687;52.160;5.298;2022-07-29T05:41:06;22.90;47.70
43995;DHT22;51687;52.160;5.298;2022-07-29T05:43:33;22.90;47.50
43995;DHT22;51687;52.160;5.298;2022-07-29T05:45:59;22.90;47.70
43995;DHT22;51687;52.160;5.298;2022-07-29T05:48:26;22.90;47.70
43995;DHT22;51687;52.160;5.298;2022-07-29T05:50:53;22.90;47.80
43995;DHT22;51687;52.160;5.298;2022-07-29T05:53:20;22.90;47.80
43995;DHT22;51687;52.160;5.298;2022-07-29T05:55:48;22.90;47.80
43995;DHT22;51687;52.160;5.298;2022-07-29T05:58:15;22.90;47.70
43995;DHT22;51687;52.160;5.298;2022-07-29T06:00:42;22.90;47.80
43995;DHT22;51687;52.160;5.298;2022-07-29T06:03:09;22.90;48.10
43995;DHT22;51687;52.160;5.298;2022-07-29T06:05:36;22.90;47.80
43995;DHT22;51687;52.160;5.298;2022-07-29T06:08:03;22.80;47.90
43995;DHT22;51687;52.160;5.298;2022-07-29T06:10:32;22.80;48.10
43995;DHT22;51687;52.160;5.298;2022-07-29T06:12:59;22.80;48.30
43995;DHT22;51687;52.160;5.298;2022-07-29T06:15:26;22.80;48.50
43995;DHT22;51687;52.160;5.298;2022-07-29T06:17:52;22.80;48.50
43995;DHT22;51687;52.160;5.298;2022-07-29T06:20:30;22.80;48.30
43995;DHT22;51687;52.160;5.298;2022-07-29T06:22:58;22.80;47.80
43995;DHT22;51687;52.160;5.298;2022-07-29T06:25:25;22.80;47.80
43995;DHT22;51687;52.160;5.298;2022-07-29T06:27:52;22.80;47.70
43995;DHT22;51687;52.160;5.298;2022-07-29T06:30:19;22.80;47.60
43995;DHT22;51687;52.160;5.298;2022-07-29T06:32:55;22.80;47.60
43995;DHT22;51687;52.160;5.298;2022-07-29T06:35:22;22.80;47.50
43995;DHT22;51687;52.160;5.298;2022-07-29T06:38:09;22.80;47.70
43995;DHT22;51687;52.160;5.298;2022-07-29T06:40:56;22.80;47.60
43995;DHT22;51687;52.160;5.298;2022-07-29T06:43:37;22.70;47.60
43995;DHT22;51687;52.160;5.298;2022-07-29T06:46:18;22.70;47.80
43995;DHT22;51687;52.160;5.298;2022-07-29T06:48:46;22.70;47.50
43995;DHT22;51687;52.160;5.298;2022-07-29T06:51:16;22.70;47.10
43995;DHT22;51687;52.160;5.298;2022-07-29T06:53:48;22.70;47.20
43995;DHT22;51687;52.160;5.298;2022-07-29T06:56:32;22.70;47.30
43995;DHT22;51687;52.160;5.298;2022-07-29T06:59:05;22.70;47.30
43995;DHT22;51687;52.160;5.298;2022-07-29T07:01:33;22.60;47.20
43995;DHT22;51687;52.160;5.298;2022-07-29T07:03:59;22.70;47.40
43995;DHT22;51687;52.160;5.298;2022-07-29T07:06:26;22.60;47.40
43995;DHT22;51687;52.160;5.298;2022-07-29T07:08:53;22.70;46.80
43995;DHT22;51687;52.160;5.298;2022-07-29T07:11:20;22.60;46.90
43995;DHT22;51687;52.160;5.298;2022-07-29T07:13:47;22.60;46.80
43995;DHT22;51687;52.160;5.298;2022-07-29T07:16:14;22.60;46.80
43995;DHT22;51687;52.160;5.298;2022-07-29T07:18:41;22.60;47.00
43995;DHT22;51687;52.160;5.298;2022-07-29T07:21:08;22.60;47.10
43995;DHT22;51687;52.160;5.298;2022-07-29T07:23:35;22.60;47.10
43995;DHT22;51687;52.160;5.298;2022-07-29T07:26:02;22.60;47.20
43995;DHT22;51687;52.160;5.298;2022-07-29T07:28:29;22.60;47.00
43995;DHT22;51687;52.160;5.298;2022-07-29T07:30:56;22.60;46.90
43995;DHT22;51687;52.160;5.298;2022-07-29T07:33:23;22.60;47.30
43995;DHT22;51687;52.160;5.298;2022-07-29T07:35:49;22.60;47.30
43995;DHT22;51687;52.160;5.298;2022-07-29T07:38:16;22.60;47.20
43995;DHT22;51687;52.160;5.298;2022-07-29T07:40:46;22.60;47.30
43995;DHT22;51687;52.160;5.298;2022-07-29T07:43:13;22.60;47.40
43995;DHT22;51687;52.160;5.298;2022-07-29T07:45:40;22.60;47.20
43995;DHT22;51687;52.160;5.298;2022-07-29T07:48:06;22.60;47.30
43995;DHT22;51687;52.160;5.298;2022-07-29T07:50:33;22.60;47.50
43995;DHT22;51687;52.160;5.298;2022-07-29T07:53:00;22.60;47.70
43995;DHT22;51687;52.160;5.298;2022-07-29T07:55:28;22.60;47.80
43995;DHT22;51687;52.160;5.298;2022-07-29T07:58:15;22.60;47.90
43995;DHT22;51687;52.160;5.298;2022-07-29T08:00:42;22.60;47.80
43995;DHT22;51687;52.160;5.298;2022-07-29T08:03:09;22.60;48.10
43995;DHT22;51687;52.160;5.298;2022-07-29T08:05:43;22.60;48.10
43995;DHT22;51687;52.160;5.298;2022-07-29T08:08:10;22.60;48.20
43995;DHT22;51687;52.160;5.298;2022-07-29T08:10:37;22.60;48.30
43995;DHT22;51687;52.160;5.298;2022-07-29T08:13:20;22.60;48.60
43995;DHT22;51687;52.160;5.298;2022-07-29T08:15:48;22.60;48.90
43995;DHT22;51687;52.160;5.298;2022-07-29T08:18:24;22.60;49.00
43995;DHT22;51687;52.160;5.298;2022-07-29T08:20:51;22.50;48.90
43995;DHT22;51687;52.160;5.298;2022-07-29T08:23:18;22.50;48.80
43995;DHT22;51687;52.160;5.298;2022-07-29T08:25:45;22.50;49.20
43995;DHT22;51687;52.160;5.298;2022-07-29T08:28:16;22.50;49.90
43995;DHT22;51687;52.160;5.298;2022-07-29T08:30:43;22.50;49.50
43995;DHT22;51687;52.160;5.298;2022-07-29T08:33:10;22.50;49.40
43995;DHT22;51687;52.160;5.298;2022-07-29T08:35:38;22.50;49.30
43995;DHT22;51687;52.160;5.298;2022-07-29T08:38:05;22.40;49.80
43995;DHT22;51687;52.160;5.298;2022-07-29T08:40:32;22.40;49.80
43995;DHT22;51687;52.160;5.298;2022-07-29T08:43:04;22.50;49.40
43995;DHT22;51687;52.160;5.298;2022-07-29T08:45:45;22.40;49.80
43995;DHT22;51687;52.160;5.298;2022-07-29T08:48:14;22.40;49.80
43995;DHT22;51687;52.160;5.298;2022-07-29T08:50:43;22.50;49.10
43995;DHT22;51687;52.160;5.298;2022-07-29T08:53:17;22.40;48.90
43995;DHT22;51687;52.160;5.298;2022-07-29T08:55:48;22.40;49.30
43995;DHT22;51687;52.160;5.298;2022-07-29T08:58:18;22.50;49.30
43995;DHT22;51687;52.160;5.298;2022-07-29T09:00:55;22.50;49.30
43995;DHT22;51687;52.160;5.298;2022-07-29T09:03:24;22.40;49.60
43995;DHT22;51687;52.160;5.298;2022-07-29T09:05:52;22.50;49.60
43995;DHT22;51687;52.160;5.298;2022-07-29T09:08:20;22.50;50.30
43995;DHT22;51687;52.160;5.298;2022-07-29T09:10:48;22.40;50.90
43995;DHT22;51687;52.160;5.298;2022-07-29T09:13:14;22.50;50.20
43995;DHT22;51687;52.160;5.298;2022-07-29T09:15:41;22.50;50.80
43995;DHT22;51687;52.160;5.298;2022-07-29T09:18:08;22.50;51.00
43995;DHT22;51687;52.160;5.298;2022-07-29T09:20:55;22.50;50.80
43995;DHT22;51687;52.160;5.298;2022-07-29T09:23:40;22.50;50.80
43995;DHT22;51687;52.160;5.298;2022-07-29T09:26:08;22.50;50.60
43995;DHT22;51687;52.160;5.298;2022-07-29T09:28:41;22.50;51.20
43995;DHT22;51687;52.160;5.298;2022-07-29T09:31:09;22.50;50.90
43995;DHT22;51687;52.160;5.298;2022-07-29T09:33:36;22.50;51.80
43995;DHT22;51687;52.160;5.298;2022-07-29T09:36:07;22.50;51.00
43995;DHT22;51687;52.160;5.298;2022-07-29T09:38:35;22.50;50.50
43995;DHT22;51687;52.160;5.298;2022-07-29T09:41:04;22.50;49.90
43995;DHT22;51687;52.160;5.298;2022-07-29T09:43:33;22.50;50.00
43995;DHT22;51687;52.160;5.298;2022-07-29T09:46:11;22.60;50.10
43995;DHT22;51687;52.160;5.298;2022-07-29T09:48:38;22.60;50.00
43995;DHT22;51687;52.160;5.298;2022-07-29T09:51:05;22.60;49.30
43995;DHT22;51687;52.160;5.298;2022-07-29T09:53:47;22.60;49.50
43995;DHT22;51687;52.160;5.298;2022-07-29T09:56:14;22.60;49.20
43995;DHT22;51687;52.160;5.298;2022-07-29T09:58:41;22.60;48.50
43995;DHT22;51687;52.160;5.298;2022-07-29T10:01:08;22.60;48.40
43995;DHT22;51687;52.160;5.298;2022-07-29T10:03:51;22.60;49.30
43995;DHT22;51687;52.160;5.298;2022-07-29T10:06:18;22.60;49.20
43995;DHT22;51687;52.160;5.298;2022-07-29T10:08:46;22.70;48.90
43995;DHT22;51687;52.160;5.298;2022-07-29T10:11:17;22.70;48.10
43995;DHT22;51687;52.160;5.298;2022-07-29T10:13:46;22.70;48.30
43995;DHT22;51687;52.160;5.298;2022-07-29T10:16:15;22.70;48.70
43995;DHT22;51687;52.160;5.298;2022-07-29T10:18:43;22.70;49.90
43995;DHT22;51687;52.160;5.298;2022-07-29T10:21:10;22.70;49.30
43995;DHT22;51687;52.160;5.298;2022-07-29T10:23:58;22.80;49.20
43995;DHT22;51687;52.160;5.298;2022-07-29T10:26:27;22.80;49.40
43995;DHT22;51687;52.160;5.298;2022-07-29T10:28:55;22.80;49.90
43995;DHT22;51687;52.160;5.298;2022-07-29T10:31:29;22.80;49.50
43995;DHT22;51687;52.160;5.298;2022-07-29T10:34:16;22.80;48.50
43995;DHT22;51687;52.160;5.298;2022-07-29T10:36:54;22.90;49.40
43995;DHT22;51687;52.160;5.298;2022-07-29T10:42:21;22.90;49.30
43995;DHT22;51687;52.160;5.298;2022-07-29T10:45:03;22.90;49.10
43995;DHT22;51687;52.160;5.298;2022-07-29T10:47:31;23.00;49.20
43995;DHT22;51687;52.160;5.298;2022-07-29T10:50:04;23.00;49.10
43995;DHT22;51687;52.160;5.298;2022-07-29T10:55:38;23.00;48.60
43995;DHT22;51687;52.160;5.298;2022-07-29T10:58:18;23.00;48.70
43995;DHT22;51687;52.160;5.298;2022-07-29T11:00:52;23.00;48.60
43995;DHT22;51687;52.160;5.298;2022-07-29T11:03:46;23.10;48.50
43995;DHT22;51687;52.160;5.298;2022-07-29T11:06:16;23.10;49.00
43995;DHT22;51687;52.160;5.298;2022-07-29T11:09:16;23.10;48.80
43995;DHT22;51687;52.160;5.298;2022-07-29T11:11:51;23.10;48.60
43995;DHT22;51687;52.160;5.298;2022-07-29T11:17:24;23.20;49.10
43995;DHT22;51687;52.160;5.298;2022-07-29T11:19:53;23.20;48.40
43995;DHT22;51687;52.160;5.298;2022-07-29T11:22:41;23.20;48.20
43995;DHT22;51687;52.160;5.298;2022-07-29T11:25:14;23.30;48.60
43995;DHT22;51687;52.160;5.298;2022-07-29T11:27:42;23.30;48.50
43995;DHT22;51687;52.160;5.298;2022-07-29T11:30:11;23.30;47.90
43995;DHT22;51687;52.160;5.298;2022-07-29T11:32:42;23.30;48.20
43995;DHT22;51687;52.160;5.298;2022-07-29T11:35:19;23.40;48.50
43995;DHT22;51687;52.160;5.298;2022-07-29T11:43:56;23.40;48.50
43995;DHT22;51687;52.160;5.298;2022-07-29T11:46:47;23.50;48.90
43995;DHT22;51687;52.160;5.298;2022-07-29T11:49:23;23.50;49.70
43995;DHT22;51687;52.160;5.298;2022-07-29T11:51:59;23.50;49.00
43995;DHT22;51687;52.160;5.298;2022-07-29T11:54:33;23.60;49.00
43995;DHT22;51687;52.160;5.298;2022-07-29T11:57:20;23.50;49.20
43995;DHT22;51687;52.160;5.298;2022-07-29T11:59:47;23.60;49.10
43995;DHT22;51687;52.160;5.298;2022-07-29T12:02:14;23.60;49.50
43995;DHT22;51687;52.160;5.298;2022-07-29T12:05:02;23.70;49.50
43995;DHT22;51687;52.160;5.298;2022-07-29T12:25:43;23.70;49.60
43995;DHT22;51687;52.160;5.298;2022-07-29T12:28:15;23.90;50.60
43995;DHT22;51687;52.160;5.298;2022-07-29T12:30:53;23.90;50.60
43995;DHT22;51687;52.160;5.298;2022-07-29T12:33:24;23.90;49.60
43995;DHT22;51687;52.160;5.298;2022-07-29T12:35:57;23.90;49.60
43995;DHT22;51687;52.160;5.298;2022-07-29T12:38:33;24.00;49.80
43995;DHT22;51687;52.160;5.298;2022-07-29T12:41:01;24.00;49.30
43995;DHT22;51687;52.160;5.298;2022-07-29T12:43:30;24.00;50.00
43995;DHT22;51687;52.160;5.298;2022-07-29T12:45:57;24.00;49.50
43995;DHT22;51687;52.160;5.298;2022-07-29T12:48:35;24.00;48.90
43995;DHT22;51687;52.160;5.298;2022-07-29T12:51:03;24.10;49.70
43995;DHT22;51687;52.160;5.298;2022-07-29T12:53:30;24.10;49.50
43995;DHT22;51687;52.160;5.298;2022-07-29T12:55:58;24.10;49.50
43995;DHT22;51687;52.160;5.298;2022-07-29T12:58:44;24.10;49.50
43995;DHT22;51687;52.160;5.298;2022-07-29T13:01:17;24.10;49.20
43995;DHT22;51687;52.160;5.298;2022-07-29T13:03:50;24.20;49.00
43995;DHT22;51687;52.160;5.298;2022-07-29T13:09:17;24.20;48.60
43995;DHT22;51687;52.160;5.298;2022-07-29T13:11:46;24.30;48.80
43995;DHT22;51687;52.160;5.298;2022-07-29T13:17:07;24.40;48.30
43995;DHT22;51687;52.160;5.298;2022-07-29T13:19:51;24.40;48.90
43995;DHT22;51687;52.160;5.298;2022-07-29T13:22:22;24.40;48.00
43995;DHT22;51687;52.160;5.298;2022-07-29T13:25:00;24.40;47.70
43995;DHT22;51687;52.160;5.298;2022-07-29T13:27:33;24.50;48.10
43995;DHT22;51687;52.160;5.298;2022-07-29T13:30:03;24.40;47.90
43995;DHT22;51687;52.160;5.298;2022-07-29T13:32:31;24.50;47.90
43995;DHT22;51687;52.160;5.298;2022-07-29T13:35:00;24.50;47.50
43995;DHT22;51687;52.160;5.298;2022-07-29T13:37:31;24.50;47.30
43995;DHT22;51687;52.160;5.298;2022-07-29T13:40:02;24.50;46.70
43995;DHT22;51687;52.160;5.298;2022-07-29T13:42:30;24.50;46.50
43995;DHT22;51687;52.160;5.298;2022-07-29T13:44:58;24.60;46.50
43995;DHT22;51687;52.160;5.298;2022-07-29T13:47:25;24.60;47.40
43995;DHT22;51687;52.160;5.298;2022-07-29T13:50:02;24.60;47.50
43995;DHT22;51687;52.160;5.298;2022-07-29T13:52:31;24.60;46.80
43995;DHT22;51687;52.160;5.298;2022-07-29T13:55:00;24.60;47.00
43995;DHT22;51687;52.160;5.298;2022-07-29T13:57:27;24.60;47.90
43995;DHT22;51687;52.160;5.298;2022-07-29T13:59:54;24.60;47.20
43995;DHT22;51687;52.160;5.298;2022-07-29T14:02:22;24.60;48.20
43995;DHT22;51687;52.160;5.298;2022-07-29T14:04:52;24.60;47.30
43995;DHT22;51687;52.160;5.298;2022-07-29T14:07:20;24.70;46.60
43995;DHT22;51687;52.160;5.298;2022-07-29T14:09:47;24.70;46.30
43995;DHT22;51687;52.160;5.298;2022-07-29T14:12:13;24.60;46.80
43995;DHT22;51687;52.160;5.298;2022-07-29T14:14:40;24.60;47.00
43995;DHT22;51687;52.160;5.298;2022-07-29T14:17:08;24.60;46.70
43995;DHT22;51687;52.160;5.298;2022-07-29T14:19:36;24.60;46.90
43995;DHT22;51687;52.160;5.298;2022-07-29T14:22:07;24.60;47.20
43995;DHT22;51687;52.160;5.298;2022-07-29T14:24:35;24.60;46.60
43995;DHT22;51687;52.160;5.298;2022-07-29T14:27:04;24.70;47.00
43995;DHT22;51687;52.160;5.298;2022-07-29T14:29:33;24.70;47.20
43995;DHT22;51687;52.160;5.298;2022-07-29T14:32:04;24.70;47.10
43995;DHT22;51687;52.160;5.298;2022-07-29T14:34:32;24.60;46.40
43995;DHT22;51687;52.160;5.298;2022-07-29T14:37:01;24.60;46.20
43995;DHT22;51687;52.160;5.298;2022-07-29T14:39:29;24.60;46.40
43995;DHT22;51687;52.160;5.298;2022-07-29T14:41:57;24.60;46.10
43995;DHT22;51687;52.160;5.298;2022-07-29T14:44:25;24.60;45.90
43995;DHT22;51687;52.160;5.298;2022-07-29T14:46:59;24.60;46.30
43995;DHT22;51687;52.160;5.298;2022-07-29T14:49:27;24.60;46.30
43995;DHT22;51687;52.160;5.298;2022-07-29T14:51:54;24.60;46.40
43995;DHT22;51687;52.160;5.298;2022-07-29T14:54:21;24.60;46.50
43995;DHT22;51687;52.160;5.298;2022-07-29T14:56:48;24.60;46.30
43995;DHT22;51687;52.160;5.298;2022-07-29T14:59:17;24.60;46.20
43995;DHT22;51687;52.160;5.298;2022-07-29T15:01:47;24.70;46.00
43995;DHT22;51687;52.160;5.298;2022-07-29T15:04:14;24.70;46.50
43995;DHT22;51687;52.160;5.298;2022-07-29T15:06:41;24.70;46.40
43995;DHT22;51687;52.160;5.298;2022-07-29T15:09:07;24.70;46.20
43995;DHT22;51687;52.160;5.298;2022-07-29T15:11:34;24.60;46.30
43995;DHT22;51687;52.160;5.298;2022-07-29T15:14:04;24.60;44.30
43995;DHT22;51687;52.160;5.298;2022-07-29T15:16:31;24.60;44.60
43995;DHT22;51687;52.160;5.298;2022-07-29T15:18:59;24.60;43.80
43995;DHT22;51687;52.160;5.298;2022-07-29T15:21:26;24.60;43.30
43995;DHT22;51687;52.160;5.298;2022-07-29T15:23:53;24.60;44.80
43995;DHT22;51687;52.160;5.298;2022-07-29T15:26:20;24.60;43.50
43995;DHT22;51687;52.160;5.298;2022-07-29T15:28:47;24.60;43.30
43995;DHT22;51687;52.160;5.298;2022-07-29T15:31:14;24.60;42.40
43995;DHT22;51687;52.160;5.298;2022-07-29T15:33:41;24.60;42.20
43995;DHT22;51687;52.160;5.298;2022-07-29T15:36:08;24.70;42.50
43995;DHT22;51687;52.160;5.298;2022-07-29T15:38:37;24.70;42.10
43995;DHT22;51687;52.160;5.298;2022-07-29T15:41:07;24.70;41.50
43995;DHT22;51687;52.160;5.298;2022-07-29T15:43:34;24.70;41.60
43995;DHT22;51687;52.160;5.298;2022-07-29T15:46:01;24.70;41.60
43995;DHT22;51687;52.160;5.298;2022-07-29T15:48:47;24.70;41.00
43995;DHT22;51687;52.160;5.298;2022-07-29T15:51:14;24.70;41.60
43995;DHT22;51687;52.160;5.298;2022-07-29T15:53:40;24.80;41.60
43995;DHT22;51687;52.160;5.298;2022-07-29T15:56:07;24.80;40.40
43995;DHT22;51687;52.160;5.298;2022-07-29T15:58:34;24.80;39.60
43995;DHT22;51687;52.160;5.298;2022-07-29T16:01:01;24.90;40.50
43995;DHT22;51687;52.160;5.298;2022-07-29T16:03:28;24.80;39.80
43995;DHT22;51687;52.160;5.298;2022-07-29T16:05:55;24.90;40.90
43995;DHT22;51687;52.160;5.298;2022-07-29T16:08:22;24.80;40.80
43995;DHT22;51687;52.160;5.298;2022-07-29T16:10:49;24.90;39.20
43995;DHT22;51687;52.160;5.298;2022-07-29T16:13:16;24.90;39.50
43995;DHT22;51687;52.160;5.298;2022-07-29T16:15:45;24.90;38.90
43995;DHT22;51687;52.160;5.298;2022-07-29T16:18:28;24.90;38.90
43995;DHT22;51687;52.160;5.298;2022-07-29T16:20:56;24.90;38.90
43995;DHT22;51687;52.160;5.298;2022-07-29T16:23:23;24.90;40.30
43995;DHT22;51687;52.160;5.298;2022-07-29T16:25:50;24.90;41.20
43995;DHT22;51687;52.160;5.298;2022-07-29T16:28:27;25.00;41.00
43995;DHT22;51687;52.160;5.298;2022-07-29T16:30:54;25.00;40.20
43995;DHT22;51687;52.160;5.298;2022-07-29T16:33:21;25.00;40.70
43995;DHT22;51687;52.160;5.298;2022-07-29T16:35:49;25.00;41.50
43995;DHT22;51687;52.160;5.298;2022-07-29T16:38:16;25.00;42.80
43995;DHT22;51687;52.160;5.298;2022-07-29T16:40:43;25.00;42.70
43995;DHT22;51687;52.160;5.298;2022-07-29T16:43:10;25.00;43.00